createdAt,value
2023-01-30T00:00:40.246Z,43.9
2023-01-30T00:02:23.929Z,43.9
2023-01-30T00:04:07.618Z,43.9
2023-01-30T00:05:51.366Z,43.9
2023-01-30T00:07:35.015Z,43.8
2023-01-30T00:09:18.717Z,43.8
2023-01-30T00:11:02.483Z,43.8
2023-01-30T00:12:46.257Z,43.8
2023-01-30T00:14:29.840Z,43.8
2023-01-30T00:16:13.540Z,43.8
2023-01-30T00:17:57.370Z,43.8
2023-01-30T00:19:41.018Z,43.8
2023-01-30T00:21:24.654Z,43.8
2023-01-30T00:23:08.410Z,43.8
2023-01-30T00:24:52.169Z,43.7
2023-01-30T00:26:35.782Z,43.7
2023-01-30T00:28:19.544Z,43.7
2023-01-30T00:30:03.398Z,43.7
2023-01-30T00:31:47.037Z,43.7
2023-01-30T00:33:30.758Z,43.7
2023-01-30T00:35:14.363Z,43.7
2023-01-30T00:36:58.117Z,43.7
2023-01-30T00:38:41.880Z,43.7
2023-01-30T00:40:25.548Z,43.7
2023-01-30T00:42:09.177Z,43.7
2023-01-30T00:43:52.949Z,43.7
2023-01-30T00:45:36.634Z,43.7
2023-01-30T00:47:20.256Z,43.7
2023-01-30T00:49:04.050Z,43.7
2023-01-30T00:50:47.574Z,43.7
2023-01-30T00:52:31.291Z,43.7
2023-01-30T00:54:15.196Z,43.7
2023-01-30T00:55:58.795Z,43.7
2023-01-30T00:57:42.552Z,43.6
2023-01-30T00:59:26.300Z,43.6
2023-01-30T01:01:09.770Z,43.6
2023-01-30T01:02:53.638Z,43.6
2023-01-30T01:04:37.351Z,43.6
2023-01-30T01:06:21.092Z,43.6
2023-01-30T01:08:04.751Z,43.6
2023-01-30T01:09:48.473Z,43.6
2023-01-30T01:11:32.140Z,43.6
2023-01-30T01:13:15.690Z,43.6
2023-01-30T01:14:59.525Z,43.6
2023-01-30T01:16:43.262Z,43.6
2023-01-30T01:18:27.011Z,43.6
2023-01-30T01:20:10.735Z,43.6
2023-01-30T01:21:54.359Z,43.6
2023-01-30T01:23:38.095Z,43.6
2023-01-30T01:25:21.602Z,43.6
2023-01-30T01:27:05.354Z,43.5
2023-01-30T01:28:49.118Z,43.6
2023-01-30T01:30:32.867Z,43.6
2023-01-30T01:32:16.578Z,43.5
2023-01-30T01:34:00.281Z,43.5
2023-01-30T01:35:43.934Z,43.5
2023-01-30T01:37:27.677Z,43.5
2023-01-30T01:39:11.440Z,43.5
2023-01-30T01:40:54.915Z,43.5
2023-01-30T01:42:38.835Z,43.5
2023-01-30T01:44:22.492Z,43.5
2023-01-30T01:46:06.203Z,43.5
2023-01-30T01:47:49.829Z,43.5
2023-01-30T01:49:33.475Z,43.5
2023-01-30T01:51:17.314Z,43.5
2023-01-30T01:53:01.014Z,43.5
2023-01-30T01:54:44.665Z,43.5
2023-01-30T01:56:28.397Z,43.6
2023-01-30T01:58:12.156Z,43.6
2023-01-30T01:59:55.647Z,43.7
2023-01-30T02:01:39.527Z,43.8
2023-01-30T02:03:23.108Z,43.8
2023-01-30T02:05:06.739Z,43.8
2023-01-30T02:06:50.622Z,43.8
2023-01-30T02:08:34.316Z,43.8
2023-01-30T02:10:18.012Z,43.8
2023-01-30T02:12:01.735Z,43.8
2023-01-30T02:13:45.431Z,43.8
2023-01-30T02:15:29.089Z,43.8
2023-01-30T02:17:12.627Z,43.7
2023-01-30T02:18:56.510Z,43.7
2023-01-30T02:20:40.190Z,43.7
2023-01-30T02:22:23.950Z,43.6
2023-01-30T02:24:07.632Z,43.6
2023-01-30T02:25:51.290Z,43.6
2023-01-30T02:27:34.984Z,43.6
2023-01-30T02:29:18.683Z,43.6
2023-01-30T02:31:02.417Z,43.6
2023-01-30T02:32:45.963Z,43.6
2023-01-30T02:34:29.778Z,43.5
2023-01-30T02:36:13.518Z,43.5
2023-01-30T02:37:57.323Z,43.5
2023-01-30T02:39:40.935Z,43.5
2023-01-30T02:41:24.636Z,43.5
2023-01-30T02:43:08.387Z,43.5
2023-01-30T02:44:51.861Z,43.5
2023-01-30T02:46:35.750Z,43.5
2023-01-30T02:48:19.476Z,43.5
2023-01-30T02:50:03.150Z,43.4
2023-01-30T02:51:46.850Z,43.4
2023-01-30T02:53:30.547Z,43.4
2023-01-30T02:55:14.231Z,43.4
2023-01-30T02:56:57.798Z,43.3
2023-01-30T02:58:41.488Z,43.3
2023-01-30T03:00:25.368Z,43.4
2023-01-30T03:02:08.999Z,43.4
2023-01-30T03:03:52.822Z,43.4
2023-01-30T03:05:36.508Z,43.3
2023-01-30T03:07:19.985Z,43.3
2023-01-30T03:09:03.839Z,43.3
2023-01-30T03:10:47.554Z,43.4
2023-01-30T03:12:31.233Z,43.3
2023-01-30T03:14:14.966Z,43.4
2023-01-30T03:17:42.359Z,43.3
2023-01-30T03:19:26.095Z,43.3
2023-01-30T03:21:09.899Z,43.4
2023-01-30T03:22:53.474Z,43.3
2023-01-30T03:24:37.196Z,43.3
2023-01-30T03:26:20.844Z,43.3
2023-01-30T03:28:04.475Z,43.3
2023-01-30T03:29:48.295Z,43.3
2023-01-30T03:31:31.972Z,43.4
2023-01-30T03:33:15.695Z,43.3
2023-01-30T03:34:59.405Z,43.3
2023-01-30T03:36:43.084Z,43.3
2023-01-30T03:38:26.633Z,43.3
2023-01-30T03:40:10.386Z,43.3
2023-01-30T03:41:54.132Z,43.3
2023-01-30T03:43:37.724Z,43.2
2023-01-30T03:45:21.521Z,43.3
2023-01-30T03:47:05.318Z,43.3
2023-01-30T03:48:48.883Z,43.3
2023-01-30T03:50:32.511Z,43.3
2023-01-30T03:52:16.235Z,43.2
2023-01-30T03:54:00.059Z,43.3
2023-01-30T03:55:43.637Z,43.2
2023-01-30T03:57:27.337Z,43.2
2023-01-30T03:59:11.228Z,43.3
2023-01-30T04:00:54.929Z,43.2
2023-01-30T04:02:38.597Z,43.3
2023-01-30T04:04:22.170Z,43.3
2023-01-30T04:06:06.038Z,43.3
2023-01-30T04:07:49.635Z,43.3
2023-01-30T04:09:33.315Z,43.2
2023-01-30T04:11:17.016Z,43.2
2023-01-30T04:13:00.840Z,43.2
2023-01-30T04:14:44.536Z,43.2
2023-01-30T04:16:28.147Z,43.2
2023-01-30T04:18:11.810Z,43.2
2023-01-30T04:19:55.622Z,43.2
2023-01-30T04:21:39.263Z,43.2
2023-01-30T04:23:23.047Z,43.2
2023-01-30T04:25:06.726Z,43.1
2023-01-30T04:26:50.419Z,43.2
2023-01-30T04:28:34.039Z,43.2
2023-01-30T04:30:17.829Z,43.2
2023-01-30T04:32:01.714Z,43.2
2023-01-30T04:33:45.117Z,43.1
2023-01-30T04:35:28.937Z,43.1
2023-01-30T04:37:12.627Z,43.1
2023-01-30T04:38:56.188Z,43.1
2023-01-30T04:40:39.872Z,43.1
2023-01-30T04:42:23.744Z,43.1
2023-01-30T04:44:07.281Z,43.1
2023-01-30T04:45:50.976Z,43
2023-01-30T04:47:34.833Z,43
2023-01-30T04:49:18.520Z,43
2023-01-30T04:51:02.192Z,43
2023-01-30T04:52:45.782Z,43.1
2023-01-30T04:54:29.641Z,43.1
2023-01-30T04:56:13.336Z,43
2023-01-30T04:57:57.058Z,43
2023-01-30T04:59:40.686Z,43
2023-01-30T05:01:24.424Z,43
2023-01-30T05:03:08.064Z,43
2023-01-30T05:04:51.703Z,43.1
2023-01-30T05:06:35.537Z,43.1
2023-01-30T05:08:19.212Z,43.1
2023-01-30T05:10:03.038Z,43
2023-01-30T05:11:46.612Z,43
2023-01-30T05:13:30.193Z,43.1
2023-01-30T05:15:14.088Z,43
2023-01-30T05:16:57.782Z,43
2023-01-30T05:18:41.354Z,43
2023-01-30T05:20:25.148Z,43
2023-01-30T05:22:08.833Z,43
2023-01-30T05:23:52.404Z,43
2023-01-30T05:25:36.116Z,43
2023-01-30T05:27:19.951Z,43
2023-01-30T05:29:03.595Z,42.9
2023-01-30T05:30:47.334Z,43
2023-01-30T05:32:31.104Z,43
2023-01-30T05:34:14.727Z,43
2023-01-30T05:35:58.492Z,43
2023-01-30T05:37:42.175Z,43
2023-01-30T05:39:25.852Z,42.9
2023-01-30T05:41:09.590Z,42.9
2023-01-30T05:42:53.144Z,42.9
2023-01-30T05:44:37.003Z,43
2023-01-30T05:46:20.662Z,43
2023-01-30T05:48:04.350Z,42.9
2023-01-30T05:49:48.052Z,42.9
2023-01-30T05:51:31.826Z,42.9
2023-01-30T05:53:15.531Z,42.9
2023-01-30T05:54:59.062Z,42.9
2023-01-30T05:56:42.945Z,42.9
2023-01-30T05:58:26.602Z,42.9
2023-01-30T06:00:10.286Z,42.9
2023-01-30T06:01:53.996Z,42.9
2023-01-30T06:03:37.654Z,42.9
2023-01-30T06:05:21.387Z,42.9
2023-01-30T06:07:05.113Z,42.9
2023-01-30T06:08:48.736Z,42.9
2023-01-30T06:10:32.362Z,42.9
2023-01-30T06:12:16.107Z,42.9
2023-01-30T06:13:59.934Z,42.9
2023-01-30T06:15:43.551Z,43
2023-01-30T06:17:27.221Z,43
2023-01-30T06:19:11.009Z,42.9
2023-01-30T06:20:54.562Z,42.8
2023-01-30T06:22:38.325Z,42.9
2023-01-30T06:24:22.184Z,42.9
2023-01-30T06:26:05.705Z,42.9
2023-01-30T06:27:49.684Z,43.1
2023-01-30T06:29:33.116Z,43.3
2023-01-30T06:31:16.927Z,43.3
2023-01-30T06:33:00.549Z,43.3
2023-01-30T06:34:44.277Z,43.2
2023-01-30T06:36:27.940Z,43.3
2023-01-30T06:38:11.779Z,43.2
2023-01-30T06:39:55.456Z,43.1
2023-01-30T06:41:39.032Z,43.1
2023-01-30T06:43:22.963Z,43.1
2023-01-30T06:45:06.549Z,43.1
2023-01-30T06:46:50.175Z,43.1
2023-01-30T06:48:33.853Z,43.1
2023-01-30T06:50:17.629Z,43.1
2023-01-30T06:52:01.411Z,43.1
2023-01-30T06:53:45.036Z,43
2023-01-30T06:55:28.698Z,43
2023-01-30T06:57:12.368Z,43
2023-01-30T06:58:56.081Z,43
2023-01-30T07:00:39.833Z,43
2023-01-30T07:02:23.510Z,43
2023-01-30T07:04:07.135Z,43.1
2023-01-30T07:05:51.087Z,43
2023-01-30T07:07:34.818Z,43
2023-01-30T07:09:18.393Z,42.9
2023-01-30T07:11:02.068Z,43
2023-01-30T07:12:45.698Z,42.9
2023-01-30T07:14:29.334Z,42.9
2023-01-30T07:16:13.243Z,43
2023-01-30T07:17:56.762Z,42.9
2023-01-30T07:21:24.309Z,42.8
2023-01-30T07:23:07.993Z,42.9
2023-01-30T07:24:51.528Z,42.8
2023-01-30T07:26:35.322Z,42.8
2023-01-30T07:28:19.130Z,42.8
2023-01-30T07:30:02.654Z,42.9
2023-01-30T07:31:46.397Z,42.9
2023-01-30T07:33:30.124Z,42.8
2023-01-30T07:35:13.843Z,42.8
2023-01-30T07:36:57.462Z,42.9
2023-01-30T07:38:41.206Z,42.9
2023-01-30T07:40:24.986Z,42.9
2023-01-30T07:42:08.696Z,42.9
2023-01-30T07:43:52.249Z,42.9
2023-01-30T07:45:36.091Z,42.9
2023-01-30T07:47:19.664Z,42.9
2023-01-30T07:49:03.496Z,43
2023-01-30T07:50:47.123Z,43
2023-01-30T07:52:30.763Z,43
2023-01-30T07:54:14.524Z,43
2023-01-30T07:55:58.263Z,43.1
2023-01-30T07:57:41.889Z,43.1
2023-01-30T07:59:25.661Z,43.1
2023-01-30T08:01:09.373Z,43.1
2023-01-30T08:02:53.015Z,43.1
2023-01-30T08:04:36.700Z,43.1
2023-01-30T08:06:20.523Z,43.1
2023-01-30T08:08:04.263Z,42.9
2023-01-30T08:09:47.858Z,43
2023-01-30T08:11:31.669Z,43.1
2023-01-30T08:13:15.370Z,43.1
2023-01-30T08:14:58.904Z,43.1
2023-01-30T08:16:42.748Z,43.1
2023-01-30T08:18:26.312Z,43.2
2023-01-30T08:20:10.164Z,43.2
2023-01-30T08:21:53.707Z,43.2
2023-01-30T08:23:37.588Z,43.1
2023-01-30T08:25:21.184Z,43.2
2023-01-30T08:27:04.964Z,43.2
2023-01-30T08:28:48.574Z,43.1
2023-01-30T08:30:32.324Z,43.1
2023-01-30T08:32:16.145Z,43.1
2023-01-30T08:33:59.761Z,43.1
2023-01-30T08:35:43.544Z,43.1
2023-01-30T08:37:27.073Z,43.1
2023-01-30T08:39:10.772Z,43.2
2023-01-30T08:40:54.453Z,43.1
2023-01-30T08:42:38.295Z,43.1
2023-01-30T08:44:21.849Z,43
2023-01-30T08:46:05.531Z,42.9
2023-01-30T08:47:49.424Z,42.9
2023-01-30T08:49:32.949Z,42.9
2023-01-30T08:51:16.805Z,43
2023-01-30T08:53:00.468Z,43
2023-01-30T08:54:44.050Z,43
2023-01-30T08:56:27.855Z,43
2023-01-30T08:58:11.488Z,43
2023-01-30T08:59:55.150Z,43
2023-01-30T09:01:38.967Z,43
2023-01-30T09:03:22.634Z,43
2023-01-30T09:05:06.381Z,43
2023-01-30T09:06:50.096Z,42.9
2023-01-30T09:08:33.683Z,42.9
2023-01-30T09:10:17.495Z,42.9
2023-01-30T09:12:01.067Z,42.8
2023-01-30T09:13:44.887Z,42.7
2023-01-30T09:15:28.474Z,42.8
2023-01-30T09:17:12.215Z,42.8
2023-01-30T09:18:56.033Z,42.8
2023-01-30T09:20:39.703Z,42.8
2023-01-30T09:24:07.133Z,42.7
2023-01-30T09:25:50.802Z,42.7
2023-01-30T09:27:34.369Z,42.7
2023-01-30T09:29:18.268Z,42.6
2023-01-30T09:31:01.997Z,42.7
2023-01-30T09:32:45.544Z,42.7
2023-01-30T09:36:13.004Z,42.6
2023-01-30T09:37:56.723Z,42.7
2023-01-30T09:39:40.417Z,42.9
2023-01-30T09:41:23.978Z,43.2
2023-01-30T09:43:07.710Z,43.7
2023-01-30T09:44:51.530Z,44.1
2023-01-30T09:46:35.084Z,44
2023-01-30T09:48:18.856Z,44.2
2023-01-30T09:50:02.493Z,44.1
2023-01-30T09:51:46.187Z,43.6
2023-01-30T09:53:29.886Z,43.4
2023-01-30T09:55:13.701Z,43.3
2023-01-30T09:56:57.461Z,43.3
2023-01-30T09:58:41.130Z,43.2
2023-01-30T10:00:24.711Z,43.5
2023-01-30T10:02:08.420Z,43.6
2023-01-30T10:03:52.214Z,43.7
2023-01-30T10:05:35.905Z,43.8
2023-01-30T10:07:19.678Z,43.8
2023-01-30T10:09:03.367Z,43.8
2023-01-30T10:10:47.043Z,43.5
2023-01-30T10:12:30.755Z,43.5
2023-01-30T10:14:14.528Z,43.5
2023-01-30T10:15:58.175Z,43.5
2023-01-30T10:17:41.963Z,43.4
2023-01-30T10:19:25.590Z,43.5
2023-01-30T10:21:09.332Z,43.5
2023-01-30T10:22:53.043Z,43.6
2023-01-30T10:24:36.726Z,43.6
2023-01-30T10:26:20.462Z,43.7
2023-01-30T10:28:04.098Z,43.7
2023-01-30T10:29:47.780Z,43.7
2023-01-30T10:31:31.496Z,43.8
2023-01-30T10:33:15.068Z,43.9
2023-01-30T10:34:58.771Z,44
2023-01-30T10:36:42.602Z,44.1
2023-01-30T10:38:26.166Z,44.1
2023-01-30T10:40:09.976Z,44.1
2023-01-30T10:41:53.720Z,44.2
2023-01-30T10:43:37.380Z,44.3
2023-01-30T10:45:21.001Z,44.3
2023-01-30T10:47:04.790Z,44.3
2023-01-30T10:48:48.396Z,44.4
2023-01-30T10:50:32.072Z,44.4
2023-01-30T10:52:15.760Z,44.4
2023-01-30T10:53:59.495Z,44.4
2023-01-30T10:55:43.211Z,44.5
2023-01-30T10:57:26.940Z,44.5
2023-01-30T10:59:10.690Z,44.7
2023-01-30T11:00:54.451Z,45.3
2023-01-30T11:02:37.978Z,46
2023-01-30T11:04:21.738Z,46.4
2023-01-30T11:06:05.378Z,46.8
2023-01-30T11:07:49.091Z,46.8
2023-01-30T11:09:32.770Z,47.1
2023-01-30T11:11:16.578Z,47.3
2023-01-30T11:13:00.320Z,47.5
2023-01-30T11:14:43.884Z,47.7
2023-01-30T11:16:27.629Z,48
2023-01-30T11:18:11.400Z,48
2023-01-30T11:19:54.978Z,48.1
2023-01-30T11:21:38.815Z,48.5
2023-01-30T11:23:22.621Z,49
2023-01-30T11:25:06.281Z,49
2023-01-30T11:26:49.966Z,49.1
2023-01-30T11:28:33.632Z,49.1
2023-01-30T11:30:17.245Z,49.2
2023-01-30T11:32:01.091Z,49
2023-01-30T11:33:44.636Z,49
2023-01-30T11:35:28.494Z,48.9
2023-01-30T11:37:12.134Z,49
2023-01-30T11:38:55.867Z,49.1
2023-01-30T11:40:39.431Z,49.3
2023-01-30T11:42:23.106Z,49.6
2023-01-30T11:44:06.919Z,49.7
2023-01-30T11:45:50.640Z,50
2023-01-30T11:47:34.362Z,50.4
2023-01-30T11:49:18.084Z,50.7
2023-01-30T11:51:01.764Z,50.8
2023-01-30T11:52:45.474Z,51
2023-01-30T11:54:29.195Z,51.1
2023-01-30T11:56:12.924Z,51.3
2023-01-30T11:57:56.557Z,51.4
2023-01-30T11:59:40.137Z,51.8
2023-01-30T12:01:24.016Z,52.1
2023-01-30T12:03:07.726Z,52.1
2023-01-30T12:04:51.401Z,52.4
2023-01-30T12:06:35.076Z,52.8
2023-01-30T12:08:18.772Z,53
2023-01-30T12:10:02.363Z,53.4
2023-01-30T12:11:46.232Z,55.8
2023-01-30T12:13:29.916Z,57
2023-01-30T12:15:13.617Z,56.5
2023-01-30T12:16:57.343Z,55.8
2023-01-30T12:18:41.029Z,55.6
2023-01-30T12:20:24.715Z,55.1
2023-01-30T12:22:08.360Z,55.4
2023-01-30T12:23:51.981Z,55
2023-01-30T12:25:35.774Z,54.3
2023-01-30T12:27:19.502Z,54
2023-01-30T12:29:03.209Z,53.7
2023-01-30T12:30:46.803Z,53.4
2023-01-30T12:32:30.697Z,53.2
2023-01-30T12:34:14.378Z,52.9
2023-01-30T12:35:58.056Z,52.8
2023-01-30T12:37:41.721Z,52.6
2023-01-30T12:39:25.314Z,52.5
2023-01-30T12:41:09.123Z,52.3
2023-01-30T12:42:52.706Z,52.1
2023-01-30T12:44:36.400Z,52.1
2023-01-30T12:46:20.239Z,52
2023-01-30T12:48:04.019Z,52
2023-01-30T12:49:47.631Z,51.8
2023-01-30T12:51:31.218Z,50.9
2023-01-30T12:53:14.957Z,50.8
2023-01-30T12:54:58.620Z,50.4
2023-01-30T12:56:42.339Z,48.7
2023-01-30T12:58:26.299Z,49
2023-01-30T13:00:09.712Z,49.1
2023-01-30T13:01:53.423Z,49.2
2023-01-30T13:03:37.337Z,49.1
2023-01-30T13:05:20.975Z,49
2023-01-30T13:07:04.516Z,49
2023-01-30T13:08:48.451Z,49
2023-01-30T13:10:32.101Z,48.9
2023-01-30T13:12:15.757Z,48.9
2023-01-30T13:13:59.493Z,48.8
2023-01-30T13:15:43.185Z,48.9
2023-01-30T13:17:26.726Z,48.8
2023-01-30T13:19:10.515Z,48.7
2023-01-30T13:20:54.276Z,48.6
2023-01-30T13:22:38.067Z,48.6
2023-01-30T13:24:21.659Z,48.6
2023-01-30T13:26:05.235Z,48.6
2023-01-30T13:27:49.088Z,48.6
2023-01-30T13:29:32.812Z,48.5
2023-01-30T13:31:16.332Z,48.5
2023-01-30T13:33:00.222Z,48.5
2023-01-30T13:34:43.791Z,48.5
2023-01-30T13:36:27.593Z,48.5
2023-01-30T13:38:11.285Z,48.4
2023-01-30T13:39:55.001Z,48.4
2023-01-30T13:41:38.576Z,48.4
2023-01-30T13:43:22.365Z,48.3
2023-01-30T13:45:05.991Z,48.3
2023-01-30T13:46:49.829Z,48.2
2023-01-30T13:48:33.389Z,48.2
2023-01-30T13:50:17.070Z,48.2
2023-01-30T13:52:00.875Z,48.2
2023-01-30T13:53:44.526Z,48.1
2023-01-30T13:55:28.185Z,48
2023-01-30T13:57:12.051Z,48.1
2023-01-30T13:58:55.749Z,48.1
2023-01-30T14:00:39.326Z,48.1
2023-01-30T14:02:23.120Z,48.1
2023-01-30T14:04:06.835Z,48.1
2023-01-30T14:05:50.406Z,48.1
2023-01-30T14:07:34.233Z,48
2023-01-30T14:09:17.946Z,48
2023-01-30T14:11:01.640Z,47.9
2023-01-30T14:12:45.416Z,47.8
2023-01-30T14:14:28.905Z,47.8
2023-01-30T14:16:12.698Z,47.8
2023-01-30T14:17:56.420Z,47.8
2023-01-30T14:19:43.856Z,47.8
2023-01-30T14:21:23.871Z,47.8
2023-01-30T14:23:07.499Z,47.8
2023-01-30T14:24:51.295Z,47.8
2023-01-30T14:26:34.850Z,48.1
2023-01-30T14:28:18.511Z,48.2
2023-01-30T14:30:02.245Z,48.3
2023-01-30T14:31:46.138Z,48.4
2023-01-30T14:33:29.726Z,48.3
2023-01-30T14:35:13.497Z,48.4
2023-01-30T14:36:57.045Z,48.4
2023-01-30T14:38:40.794Z,48.4
2023-01-30T14:40:24.635Z,48.4
2023-01-30T14:42:08.248Z,48.4
2023-01-30T14:43:51.816Z,48.5
2023-01-30T14:45:35.520Z,48.4
2023-01-30T14:47:19.403Z,48.4
2023-01-30T14:49:03.001Z,48.4
2023-01-30T14:50:46.611Z,48.3
2023-01-30T14:52:30.335Z,48.6
2023-01-30T14:54:14.189Z,48.6
2023-01-30T14:55:57.904Z,48.5
2023-01-30T14:57:41.462Z,48.5
2023-01-30T14:59:25.305Z,48.4
2023-01-30T15:01:08.845Z,48.4
2023-01-30T15:02:52.780Z,48.4
2023-01-30T15:04:36.408Z,48.3
2023-01-30T15:06:20.146Z,48.4
2023-01-30T15:08:03.673Z,48.4
2023-01-30T15:09:47.527Z,48.4
2023-01-30T15:11:31.151Z,48.3
2023-01-30T15:13:14.899Z,48.2
2023-01-30T15:14:58.668Z,48.1
2023-01-30T15:16:42.276Z,48
2023-01-30T15:18:26.076Z,47.8
2023-01-30T15:20:09.723Z,47.7
2023-01-30T15:21:53.474Z,47.8
2023-01-30T15:23:37.172Z,47.8
2023-01-30T15:25:20.882Z,47.8
2023-01-30T15:27:04.377Z,47.8
2023-01-30T15:28:48.233Z,47.8
2023-01-30T15:30:31.896Z,47.9
2023-01-30T15:32:15.630Z,47.9
2023-01-30T15:33:59.376Z,47.9
2023-01-30T15:35:42.949Z,47.9
2023-01-30T15:37:26.717Z,47.9
2023-01-30T15:39:10.497Z,47.9
2023-01-30T15:40:54.015Z,47.9
2023-01-30T15:42:37.867Z,47.9
2023-01-30T15:44:21.566Z,47.9
2023-01-30T15:46:05.122Z,47.9
2023-01-30T15:47:49.017Z,48
2023-01-30T15:49:32.678Z,48
2023-01-30T15:51:16.313Z,48
2023-01-30T15:53:00.097Z,48
2023-01-30T15:54:43.699Z,48
2023-01-30T15:56:27.338Z,48.1
2023-01-30T15:58:11.114Z,48.1
2023-01-30T15:59:54.768Z,48.1
2023-01-30T16:01:38.430Z,48.2
2023-01-30T16:03:22.312Z,48.2
2023-01-30T16:05:05.961Z,48.2
2023-01-30T16:06:49.689Z,48.3
2023-01-30T16:08:33.371Z,48.3
2023-01-30T16:10:16.960Z,48.3
2023-01-30T16:12:00.667Z,48.3
2023-01-30T16:13:44.320Z,48.3
2023-01-30T16:15:28.118Z,48.3
2023-01-30T16:17:11.902Z,48.4
2023-01-30T16:18:55.631Z,48.4
2023-01-30T16:20:39.239Z,48.4
2023-01-30T16:22:22.983Z,48.4
2023-01-30T16:24:06.614Z,48.4
2023-01-30T16:25:50.362Z,48.4
2023-01-30T16:27:34.139Z,48.4
2023-01-30T16:29:17.836Z,48.4
2023-01-30T16:31:01.519Z,48.7
2023-01-30T16:32:45.069Z,48.6
2023-01-30T16:34:28.903Z,48.5
2023-01-30T16:36:12.609Z,48.4
2023-01-30T16:37:56.195Z,48.5
2023-01-30T16:39:40.020Z,48.5
2023-01-30T16:41:23.704Z,48.9
2023-01-30T16:43:07.320Z,48.8
2023-01-30T16:44:51.187Z,48.7
2023-01-30T16:46:34.860Z,48.6
2023-01-30T16:48:18.641Z,48.5
2023-01-30T16:50:02.090Z,48.4
2023-01-30T16:51:45.820Z,48.5
2023-01-30T16:53:29.599Z,48.5
2023-01-30T16:55:13.324Z,48.5
2023-01-30T16:56:57.105Z,48.5
2023-01-30T16:58:40.720Z,48.5
2023-01-30T17:00:24.410Z,48.5
2023-01-30T17:02:08.128Z,48.5
2023-01-30T17:03:51.733Z,48.4
2023-01-30T17:05:35.520Z,48.4
2023-01-30T17:07:19.275Z,48.3
2023-01-30T17:09:02.828Z,48.4
2023-01-30T17:10:46.665Z,48.4
2023-01-30T17:12:30.226Z,48.5
2023-01-30T17:14:13.995Z,48.8
2023-01-30T17:15:57.801Z,48.8
2023-01-30T17:17:41.445Z,48.7
2023-01-30T17:19:25.233Z,48.6
2023-01-30T17:21:08.710Z,48.6
2023-01-30T17:22:52.472Z,48.9
2023-01-30T17:24:36.136Z,48.5
2023-01-30T17:26:19.926Z,48.4
2023-01-30T17:28:03.678Z,48.3
2023-01-30T17:29:47.324Z,48.3
2023-01-30T17:31:31.134Z,48.3
2023-01-30T17:33:14.832Z,48.3
2023-01-30T17:34:58.346Z,48.4
2023-01-30T17:36:42.225Z,48.4
2023-01-30T17:38:25.797Z,48.4
2023-01-30T17:40:09.609Z,48.4
2023-01-30T17:41:53.297Z,48.3
2023-01-30T17:43:36.937Z,48.2
2023-01-30T17:45:20.703Z,48.2
2023-01-30T17:47:04.411Z,48.2
2023-01-30T17:48:48.135Z,48.1
2023-01-30T17:50:31.800Z,48
2023-01-30T17:52:15.477Z,48
2023-01-30T17:53:59.023Z,47.9
2023-01-30T17:55:42.894Z,47.9
2023-01-30T17:57:26.557Z,47.8
2023-01-30T17:59:10.295Z,47.8
2023-01-30T18:00:54.038Z,47.7
2023-01-30T18:02:37.713Z,47.8
2023-01-30T18:04:21.380Z,47.9
2023-01-30T18:06:05.127Z,47.7
2023-01-30T18:07:48.739Z,47.7
2023-01-30T18:09:32.441Z,47.7
2023-01-30T18:11:16.277Z,47.7
2023-01-30T18:12:59.812Z,47.7
2023-01-30T18:14:43.448Z,47.6
2023-01-30T18:16:27.223Z,47.6
2023-01-30T18:18:10.992Z,47.6
2023-01-30T18:19:54.732Z,47.6
2023-01-30T18:21:38.417Z,47.5
2023-01-30T18:23:21.980Z,47.6
2023-01-30T18:25:05.768Z,47.5
2023-01-30T18:26:49.519Z,47.5
2023-01-30T18:28:33.244Z,47.5
2023-01-30T18:30:16.799Z,47.5
2023-01-30T18:32:00.570Z,47.5
2023-01-30T18:33:44.285Z,47.5
2023-01-30T18:35:27.958Z,47.5
2023-01-30T18:37:11.745Z,47.5
2023-01-30T18:38:55.437Z,47.5
2023-01-30T18:40:39.073Z,47.5
2023-01-30T18:42:22.788Z,47.5
2023-01-30T18:44:06.599Z,47.5
2023-01-30T18:45:50.194Z,47.5
2023-01-30T18:47:33.968Z,47.5
2023-01-30T18:49:17.645Z,47.8
2023-01-30T18:51:01.380Z,48
2023-01-30T18:52:45.038Z,48
2023-01-30T18:54:28.751Z,48
2023-01-30T18:56:12.435Z,48
2023-01-30T18:57:56.124Z,48
2023-01-30T18:59:39.803Z,48
2023-01-30T19:01:23.510Z,48
2023-01-30T19:03:07.245Z,48
2023-01-30T19:04:51.006Z,48
2023-01-30T19:06:34.657Z,48
2023-01-30T19:08:18.403Z,47.9
2023-01-30T19:10:01.882Z,48
2023-01-30T19:11:45.587Z,48
2023-01-30T19:13:29.481Z,48
2023-01-30T19:15:13.159Z,48
2023-01-30T19:16:56.841Z,48
2023-01-30T19:18:40.478Z,47.7
2023-01-30T19:20:24.201Z,47.6
2023-01-30T19:22:07.971Z,47.5
2023-01-30T19:23:51.639Z,47.4
2023-01-30T19:25:35.226Z,47.4
2023-01-30T19:27:19.109Z,47.3
2023-01-30T19:29:02.747Z,47.3
2023-01-30T19:30:46.494Z,47.3
2023-01-30T19:32:30.098Z,47.3
2023-01-30T19:34:13.847Z,47.2
2023-01-30T19:37:41.267Z,47.2
2023-01-30T19:39:24.997Z,47.2
2023-01-30T19:41:08.689Z,47.2
2023-01-30T19:42:52.424Z,47.1
2023-01-30T19:44:36.198Z,47.2
2023-01-30T19:46:19.823Z,47.2
2023-01-30T19:48:03.460Z,47.2
2023-01-30T19:49:47.077Z,47.1
2023-01-30T19:51:31.043Z,47.1
2023-01-30T19:53:14.657Z,47.1
2023-01-30T19:54:58.344Z,47.1
2023-01-30T19:56:42.049Z,47.1
2023-01-30T19:58:25.724Z,47.1
2023-01-30T20:00:09.439Z,47.1
2023-01-30T20:01:53.117Z,47.1
2023-01-30T20:03:36.844Z,47.1
2023-01-30T20:05:20.562Z,47.2
2023-01-30T20:07:04.252Z,47.2
2023-01-30T20:08:47.745Z,47.1
2023-01-30T20:10:31.451Z,47.2
2023-01-30T20:12:15.308Z,47.2
2023-01-30T20:13:58.903Z,47.3
2023-01-30T20:15:42.720Z,47.3
2023-01-30T20:17:26.443Z,47.3
2023-01-30T20:19:10.231Z,47.3
2023-01-30T20:20:53.780Z,47.3
2023-01-30T20:22:37.546Z,47.4
2023-01-30T20:24:21.206Z,47.3
2023-01-30T20:26:04.777Z,47.4
2023-01-30T20:27:48.613Z,47.4
2023-01-30T20:29:32.343Z,47.4
2023-01-30T20:31:16.091Z,47.4
2023-01-30T20:32:59.741Z,47.4
2023-01-30T20:34:43.420Z,47.4
2023-01-30T20:36:27.089Z,47.4
2023-01-30T20:38:10.894Z,47.4
2023-01-30T20:39:54.375Z,47.3
2023-01-30T20:41:38.122Z,47.4
2023-01-30T20:43:21.925Z,47.4
2023-01-30T20:45:05.474Z,47.4
2023-01-30T20:46:49.367Z,47.4
2023-01-30T20:48:33.058Z,47.4
2023-01-30T20:50:16.713Z,47.4
2023-01-30T20:52:00.317Z,47.4
2023-01-30T20:53:44.077Z,47.4
2023-01-30T20:55:27.843Z,47.4
2023-01-30T20:57:11.527Z,47.4
2023-01-30T20:58:55.152Z,47.3
2023-01-30T21:00:38.948Z,47.4
2023-01-30T21:02:22.597Z,47.4
2023-01-30T21:04:06.291Z,47.4
2023-01-30T21:05:49.995Z,47.4
2023-01-30T21:09:17.442Z,47.4
2023-01-30T21:11:01.001Z,47.4
2023-01-30T21:12:44.881Z,47.4
2023-01-30T21:14:28.541Z,47.4
2023-01-30T21:16:12.308Z,47.5
2023-01-30T21:17:55.952Z,47.5
2023-01-30T21:19:39.665Z,47.5
2023-01-30T21:21:23.445Z,47.5
2023-01-30T21:23:07.048Z,47.5
2023-01-30T21:24:50.772Z,47.5
2023-01-30T21:26:34.373Z,47.5
2023-01-30T21:28:18.143Z,47.4
2023-01-30T21:30:01.743Z,47.4
2023-01-30T21:31:45.586Z,47.4
2023-01-30T21:33:29.247Z,47.5
2023-01-30T21:35:12.982Z,47.5
2023-01-30T21:36:56.700Z,47.5
2023-01-30T21:40:24.117Z,47.4
2023-01-30T21:42:07.800Z,47.4
2023-01-30T21:43:51.328Z,47.4
2023-01-30T21:45:35.185Z,47.4
2023-01-30T21:47:18.841Z,47.4
2023-01-30T21:50:46.271Z,47.4
2023-01-30T21:52:30.001Z,47.4
2023-01-30T21:54:13.667Z,47.4
2023-01-30T21:55:57.396Z,47.4
2023-01-30T21:57:41.074Z,47.4
2023-01-30T21:59:24.840Z,47.4
2023-01-30T22:01:08.572Z,47.3
2023-01-30T22:02:52.217Z,47.3
2023-01-30T22:04:35.889Z,47.3
2023-01-30T22:06:19.547Z,47.3
2023-01-30T22:08:03.328Z,47.3
2023-01-30T22:09:46.860Z,47.4
2023-01-30T22:11:30.713Z,47.4
2023-01-30T22:13:14.286Z,47.3
2023-01-30T22:14:58.097Z,47.3
2023-01-30T22:16:41.904Z,47.4
2023-01-30T22:18:25.559Z,47.4
2023-01-30T22:20:09.229Z,47.3
2023-01-30T22:21:52.971Z,47.3
2023-01-30T22:23:36.625Z,47.3
2023-01-30T22:25:20.180Z,47.3
2023-01-30T22:27:03.877Z,47.3
2023-01-30T22:28:47.791Z,47.3
2023-01-30T22:30:31.292Z,47.3
2023-01-30T22:32:15.229Z,47.3
2023-01-30T22:33:58.932Z,47.3
2023-01-30T22:35:42.581Z,47.3
2023-01-30T22:37:26.259Z,47.3
2023-01-30T22:39:10.064Z,47.2
2023-01-30T22:40:53.595Z,47.2
2023-01-30T22:42:37.200Z,47.3
2023-01-30T22:44:20.930Z,47.3
2023-01-30T22:46:04.605Z,47.2
2023-01-30T22:47:48.493Z,47.2
2023-01-30T22:49:32.175Z,47.2
2023-01-30T22:51:15.850Z,47.2
2023-01-30T22:52:59.429Z,47.3
2023-01-30T22:54:43.351Z,47.3
2023-01-30T22:56:26.889Z,47.3
2023-01-30T22:58:10.610Z,47.3
2023-01-30T22:59:54.331Z,47.2
2023-01-30T23:01:37.913Z,47.2
2023-01-30T23:03:21.703Z,47.2
2023-01-30T23:05:05.329Z,47.1
2023-01-30T23:06:49.249Z,47.1
2023-01-30T23:08:32.709Z,47.1
2023-01-30T23:10:16.424Z,47.2
2023-01-30T23:12:00.147Z,47.5
2023-01-30T23:13:43.967Z,47.3
2023-01-30T23:15:27.750Z,47.3
2023-01-30T23:17:11.392Z,47.3
2023-01-30T23:18:55.167Z,47.4
2023-01-30T23:20:38.783Z,47.4
2023-01-30T23:22:22.331Z,46.9
2023-01-30T23:24:06.046Z,46.8
2023-01-30T23:25:49.901Z,46.9